Flight Track Log - Related Links

Times and Time Zones

All times are in EDT time to prevent confusion due to time zone crossing. See the QLK114 flight status page for this flight to view local times or setup timezone preferences in your user account.

Time Position Orientation Groundspeed Altitude Reporting Facility
EDT Latitude Longitude Course Direction KTS MPH feet Rate Location/Type
Thu 03:58:16 AM -33.9531 151.1890 359° North 109 125 300  Level Aus ATC (RADAR)
Thu 03:59:11 AM -33.9189 151.1885 359° North 138 159 1,600 1,725 Climbing Aus ATC (RADAR)
Thu 03:59:36 AM -33.9014 151.1895 North 145 167 2,600 1,657 Climbing Aus ATC (RADAR)
Thu 04:00:56 AM -33.8377 151.1942 North 173 199 4,500 1,371 Climbing Aus ATC (RADAR)
Thu 04:01:21 AM -33.8175 151.2056 25° Northeast 187 215 5,000 360 Climbing Aus ATC (RADAR)
Thu 04:02:36 AM -33.7474 151.2533 29° Northeast 244 281 5,100 365 Climbing Aus ATC (RADAR)
Thu 04:03:16 AM -33.7068 151.2781 27° Northeast 241 277 5,700 1,670 Climbing Aus ATC (RADAR)
Thu 04:04:31 AM -33.6435 151.3167 27° Northeast 195 224 8,300 1,824 Climbing Aus ATC (RADAR)
Thu 04:05:21 AM -33.6024 151.3419 27° Northeast 199 229 9,500 1,286 Climbing Aus ATC (RADAR)
Thu 04:07:05 AM -33.5125 151.3976 27° Northeast 211 243 11,600 1,163 Climbing Aus ATC (RADAR)
Thu 04:07:30 AM -33.4905 151.4118 28° Northeast 214 246 12,000 1,200 Climbing Aus ATC (RADAR)
Thu 04:08:45 AM -33.4244 151.4516 27° Northeast 211 243 13,600 1,145 Climbing Aus ATC (RADAR)
Thu 04:09:20 AM -33.3932 151.4710 27° Northeast 217 250 14,100 991 Climbing Aus ATC (RADAR)
Thu 04:10:40 AM -33.3213 151.5148 27° Northeast 220 253 15,500 1,043 Climbing Aus ATC (RADAR)
Thu 04:11:15 AM -33.2898 151.5343 27° Northeast 218 251 16,100 1,091 Climbing Aus ATC (RADAR)
Thu 04:12:30 AM -33.2222 151.5753 27° Northeast 214 246 17,500 1,029 Climbing Aus ATC (RADAR)
Thu 04:13:00 AM -33.1952 151.5917 27° Northeast 216 249 17,900 864 Climbing Aus ATC (RADAR)
Thu 04:14:35 AM -33.1089 151.6441 27° Northeast 221 254 19,300 494 Climbing Aus ATC (RADAR)
Thu 04:15:50 AM -33.0329 151.6904 27° Northeast 254 292 19,300  Level Aus ATC (RADAR)
Thu 04:16:48 AM -32.9687 151.7288 27° Northeast 266 306 19,300  Level Aus ATC (RADAR)
Thu 04:17:59 AM -32.8870 151.7789 27° Northeast 278 320 19,300  Level Aus ATC (RADAR)
Thu 04:18:34 AM -32.8468 151.8029 27° Northeast 279 321 19,300  Level Aus ATC (RADAR)
Thu 04:19:54 AM -32.7535 151.8569 26° Northeast 278 320 19,300  Level Aus ATC (RADAR)
Thu 04:20:29 AM -32.7127 151.8796 25° Northeast 275 316 19,300  Level Aus ATC (RADAR)
Thu 04:21:34 AM -32.6366 151.9221 25° Northeast 278 320 19,300  Level Aus ATC (RADAR)
Thu 04:22:03 AM -32.6043 151.9403 25° Northeast 277 319 19,300  Level Aus ATC (RADAR)
Thu 04:23:14 AM -32.5196 151.9877 25° Northeast 277 319 19,300  Level Aus ATC (RADAR)
Thu 04:23:49 AM -32.4785 152.0104 25° Northeast 278 320 19,300  Level Aus ATC (RADAR)
Thu 04:24:58 AM -32.3996 152.0551 26° Northeast 277 319 19,300  Level Aus ATC (RADAR)
Thu 04:25:19 AM -32.3730 152.0692 24° Northeast 280 322 19,300  Level Aus ATC (RADAR)
Thu 04:25:54 AM -32.3320 152.0918 25° Northeast 279 321 19,300  Level Aus ATC (RADAR)
Thu 04:26:39 AM -32.2794 152.1213 25° Northeast 275 316 19,300  Level Aus ATC (RADAR)
Thu 04:27:04 AM -32.2499 152.1376 25° Northeast 278 320 19,300  Level Aus ATC (RADAR)
Thu 04:27:39 AM -32.2087 152.1604 25° Northeast 279 321 19,300  Level Aus ATC (RADAR)
Thu 04:28:29 AM -32.1505 152.1931 25° Northeast 278 320 19,300  Level Aus ATC (RADAR)
Thu 04:29:03 AM -32.1091 152.2157 25° Northeast 281 323 19,300  Level Aus ATC (RADAR)
Thu 04:29:33 AM -32.0744 152.2357 26° Northeast 278 320 19,300  Level Aus ATC (RADAR)
Thu 04:30:13 AM -32.0271 152.2609 24° Northeast 277 319 19,300  Level Aus ATC (RADAR)
Thu 04:30:48 AM -31.9858 152.2832 25° Northeast 277 319 19,300  Level Aus ATC (RADAR)
Thu 04:31:18 AM -31.9506 152.3031 26° Northeast 280 322 19,300  Level Aus ATC (RADAR)
Thu 04:32:23 AM -31.8746 152.3452 25° Northeast 280 322 19,300  Level Aus ATC (RADAR)
Thu 04:32:52 AM -31.8422 152.3626 25° Northeast 275 316 19,300  Level Aus ATC (RADAR)
Thu 04:33:53 AM -31.7697 152.4036 26° Northeast 278 320 19,300  Level Aus ATC (RADAR)
Thu 04:34:33 AM -31.7232 152.4296 25° Northeast 277 319 19,300  Level Aus ATC (RADAR)
Thu 04:35:18 AM -31.6705 152.4582 25° Northeast 279 321 19,300  Level Aus ATC (RADAR)
Thu 04:35:48 AM -31.6343 152.4731 19° North 275 316 19,300  Level Aus ATC (RADAR)
Thu 04:36:53 AM -31.5545 152.5020 17° North 275 316 19,300  Level Aus ATC (RADAR)
Thu 04:37:23 AM -31.5180 152.5168 19° North 275 316 19,300  Level Aus ATC (RADAR)
Thu 04:37:53 AM -31.4817 152.5313 19° North 276 318 19,300  Level Aus ATC (RADAR)
Thu 04:38:46 AM -31.4175 152.5569 19° North 275 316 19,300  Level Aus ATC (RADAR)
Thu 04:39:17 AM -31.3808 152.5702 17° North 275 316 19,300  Level Aus ATC (RADAR)
Thu 04:39:47 AM -31.3415 152.5857 19° North 275 316 19,300  Level Aus ATC (RADAR)
Thu 04:40:32 AM -31.2870 152.6072 19° North 275 316 19,300  Level Aus ATC (RADAR)
Thu 04:41:06 AM -31.2469 152.6231 19° North 276 318 19,300 -369 Level Aus ATC (RADAR)
Thu 04:41:37 AM -31.2079 152.6378 18° North 276 318 18,900 -1,188 Descending Aus ATC (RADAR)
Thu 04:42:42 AM -31.1254 152.6702 19° North 291 335 17,400 -1,483 Descending Aus ATC (RADAR)
Thu 04:43:06 AM -31.0958 152.6818 18° North 288 331 16,700 -1,575 Descending Aus ATC (RADAR)
Thu 04:44:02 AM -31.0237 152.7098 18° North 285 328 15,300 -1,535 Descending Aus ATC (RADAR)
Thu 04:44:32 AM -30.9860 152.7243 18° North 286 329 14,500 -1,551 Descending Aus ATC (RADAR)
Thu 04:45:31 AM -30.9144 152.7516 18° North 276 318 13,000 -1,425 Descending Aus ATC (RADAR)
Thu 04:45:52 AM -30.8876 152.7619 18° North 278 320 12,600 -1,412 Descending Aus ATC (RADAR)
Thu 04:46:22 AM -30.8509 152.7759 18° North 276 318 11,800 -1,705 Descending Aus ATC (RADAR)
Thu 04:47:27 AM -30.7724 152.8057 18° North 275 316 9,900 -1,600 Descending Aus ATC (RADAR)
Thu 04:48:07 AM -30.7266 152.8235 18° North 262 302 9,000 -1,380 Descending Aus ATC (RADAR)
Thu 04:49:07 AM -30.6583 152.8491 18° North 256 295 7,600 -1,326 Descending Aus ATC (RADAR)
Thu 04:49:42 AM -30.6233 152.8636 20° North 234 269 6,900 -1,091 Descending Aus ATC (RADAR)
Thu 04:50:46 AM -30.5662 152.8858 19° North 199 229 5,800 -1,085 Descending Aus ATC (RADAR)
Thu 04:51:16 AM -30.5414 152.8990 25° Northeast 197 227 5,200 -1,059 Descending Aus ATC (RADAR)
Thu 04:52:11 AM -30.5066 152.9397 45° Northeast 194 223 4,300 -1,020 Descending Aus ATC (RADAR)
Thu 04:52:56 AM -30.4788 152.9671 40° Northeast 176 203 3,500 -809 Descending Aus ATC (RADAR)
Thu 04:53:40 AM -30.4565 152.9887 40° Northeast 143 165 3,100 -640 Descending Aus ATC (RADAR)
Thu 04:54:11 AM -30.4439 153.0031 45° Northeast 123 142 2,700 -733 Descending Aus ATC (RADAR)
Thu 04:55:10 AM -30.4220 153.0294 46° Northeast 131 151 2,000 -720 Descending Aus ATC (RADAR)
Thu 04:55:26 AM -30.4069 153.0335 13° North 155 178 1,800 -750 Descending Aus ATC (RADAR)

Login

Don't have an account? Register now (free) for customized features, flight alerts, and more!